createdAt,value
2022-08-28T00:00:31.208Z,18.30
2022-08-28T00:02:58.940Z,18.30
2022-08-28T00:05:30.388Z,18.30
2022-08-28T00:07:59.557Z,18.10
2022-08-28T00:10:27.526Z,17.90
2022-08-28T00:12:58.273Z,17.90
2022-08-28T00:15:30.329Z,17.80
2022-08-28T00:17:58.179Z,17.70
2022-08-28T00:20:27.171Z,17.70
2022-08-28T00:22:55.935Z,17.70
2022-08-28T00:25:26.667Z,17.60
2022-08-28T00:27:59.407Z,17.60
2022-08-28T00:30:31.714Z,17.70
2022-08-28T00:33:04.113Z,17.90
2022-08-28T00:35:32.034Z,18.10
2022-08-28T00:37:59.545Z,18.20
2022-08-28T00:40:33.126Z,18.10
2022-08-28T00:43:03.795Z,18.00
2022-08-28T00:45:38.805Z,18.10
2022-08-28T00:48:07.634Z,18.10
2022-08-28T00:51:00.805Z,18.10
2022-08-28T00:53:32.880Z,18.20
2022-08-28T00:56:09.501Z,18.40
2022-08-28T00:58:43.332Z,18.40
2022-08-28T01:01:11.702Z,18.40
2022-08-28T01:03:39.238Z,18.50
2022-08-28T01:06:07.675Z,18.60
2022-08-28T01:08:37.003Z,18.30
2022-08-28T01:11:07.517Z,18.00
2022-08-28T01:13:38.359Z,17.80
2022-08-28T01:16:08.144Z,17.80
2022-08-28T01:18:35.796Z,17.70
2022-08-28T01:21:20.220Z,17.60
2022-08-28T01:23:58.304Z,17.50
2022-08-28T01:26:28.288Z,17.10
2022-08-28T01:28:58.549Z,17.10
2022-08-28T01:31:28.595Z,16.90
2022-08-28T01:33:57.856Z,16.70
2022-08-28T01:36:26.068Z,16.70
2022-08-28T01:38:59.638Z,16.60
2022-08-28T01:41:27.151Z,16.60
2022-08-28T01:43:54.753Z,16.60
2022-08-28T01:46:22.473Z,16.20
2022-08-28T01:48:50.093Z,16.50
2022-08-28T01:51:20.481Z,16.50
2022-08-28T01:53:51.821Z,16.60
2022-08-28T01:56:19.827Z,16.50
2022-08-28T01:58:48.399Z,16.50
2022-08-28T02:01:19.068Z,16.50
2022-08-28T02:03:47.579Z,16.50
2022-08-28T02:06:17.032Z,16.50
2022-08-28T02:08:44.911Z,16.60
2022-08-28T02:11:13.052Z,16.70
2022-08-28T02:13:40.840Z,16.80
2022-08-28T02:16:10.119Z,16.80
2022-08-28T02:18:38.214Z,16.90
2022-08-28T02:21:06.797Z,17.00
2022-08-28T02:23:35.131Z,17.10
2022-08-28T02:26:02.912Z,17.20
2022-08-28T02:28:30.762Z,17.30
2022-08-28T02:30:58.368Z,17.30
2022-08-28T02:33:26.365Z,17.20
2022-08-28T02:35:55.332Z,17.10
2022-08-28T02:38:22.882Z,16.90
2022-08-28T02:40:50.440Z,16.90
2022-08-28T02:43:17.861Z,16.90
2022-08-28T02:45:45.362Z,17.10
2022-08-28T02:48:17.157Z,17.20
2022-08-28T02:50:46.762Z,17.30
2022-08-28T02:53:14.745Z,17.40
2022-08-28T02:55:42.312Z,17.50
2022-08-28T02:58:10.007Z,17.50
2022-08-28T03:00:37.660Z,17.60
2022-08-28T03:03:05.466Z,17.70
2022-08-28T03:05:33.276Z,17.80
2022-08-28T03:08:01.015Z,17.80
2022-08-28T03:10:28.541Z,17.70
2022-08-28T03:12:56.097Z,17.60
2022-08-28T03:15:23.500Z,17.50
2022-08-28T03:17:50.943Z,17.50
2022-08-28T03:20:19.188Z,17.50
2022-08-28T03:23:05.347Z,17.50
2022-08-28T03:25:32.795Z,17.60
2022-08-28T03:28:00.254Z,17.70
2022-08-28T03:30:27.997Z,17.90
2022-08-28T03:32:55.863Z,18.00
2022-08-28T03:35:23.563Z,18.10
2022-08-28T03:37:50.930Z,18.00
2022-08-28T03:40:19.965Z,18.00
2022-08-28T03:42:53.370Z,17.80
2022-08-28T03:45:21.929Z,17.70
2022-08-28T03:47:49.871Z,17.50
2022-08-28T03:50:18.697Z,17.50
2022-08-28T03:52:47.926Z,17.60
2022-08-28T03:55:15.836Z,17.70
2022-08-28T03:57:43.368Z,17.80
2022-08-28T04:00:13.350Z,17.80
2022-08-28T04:02:42.363Z,17.80
2022-08-28T04:05:11.222Z,17.80
2022-08-28T04:07:40.264Z,17.80
2022-08-28T04:10:08.310Z,17.80
2022-08-28T04:12:37.141Z,17.80
2022-08-28T04:15:06.930Z,17.80
2022-08-28T04:17:36.901Z,17.70
2022-08-28T04:20:05.871Z,17.70
2022-08-28T04:22:37.315Z,17.60
2022-08-28T04:25:05.456Z,18.10
2022-08-28T04:27:33.629Z,17.70
2022-08-28T04:30:01.293Z,17.80
2022-08-28T04:32:28.890Z,18.00
2022-08-28T04:34:56.320Z,18.20
2022-08-28T04:37:24.542Z,18.40
2022-08-28T04:39:55.417Z,18.40
2022-08-28T04:42:22.854Z,18.40
2022-08-28T04:44:50.668Z,18.50
2022-08-28T04:47:18.097Z,18.60
2022-08-28T04:49:45.500Z,18.70
2022-08-28T04:52:13.103Z,18.70
2022-08-28T04:54:40.544Z,18.70
2022-08-28T04:57:08.754Z,18.70
2022-08-28T04:59:36.934Z,18.70
2022-08-28T05:02:04.592Z,18.70
2022-08-28T05:04:32.044Z,18.60
2022-08-28T05:06:59.600Z,18.50
2022-08-28T05:09:27.192Z,18.40
2022-08-28T05:11:54.917Z,18.50
2022-08-28T05:14:22.441Z,18.50
2022-08-28T05:16:53.124Z,18.50
2022-08-28T05:19:21.762Z,18.60
2022-08-28T05:21:49.316Z,18.60
2022-08-28T05:24:17.144Z,18.60
2022-08-28T05:26:48.056Z,18.20
2022-08-28T05:29:17.035Z,18.70
2022-08-28T05:31:44.687Z,18.80
2022-08-28T05:34:15.332Z,18.90
2022-08-28T05:36:43.318Z,19.00
2022-08-28T05:39:12.515Z,19.10
2022-08-28T05:41:42.619Z,19.20
2022-08-28T05:44:12.401Z,19.30
2022-08-28T05:46:42.468Z,19.30
2022-08-28T05:49:10.584Z,19.40
2022-08-28T05:51:41.711Z,19.40
2022-08-28T05:54:10.124Z,19.50
2022-08-28T05:56:39.600Z,19.50
2022-08-28T05:59:08.870Z,19.60
2022-08-28T06:01:40.677Z,19.70
2022-08-28T06:04:13.009Z,19.70
2022-08-28T06:06:42.222Z,19.90
2022-08-28T06:09:16.928Z,19.90
2022-08-28T06:11:46.371Z,20.00
2022-08-28T06:14:18.117Z,20.00
2022-08-28T06:16:49.935Z,20.10
2022-08-28T06:19:17.855Z,20.10
2022-08-28T06:21:48.261Z,20.20
2022-08-28T06:24:18.835Z,20.30
2022-08-28T06:26:46.471Z,20.40
2022-08-28T06:29:21.055Z,20.50
2022-08-28T06:31:57.020Z,20.60
2022-08-28T06:34:25.110Z,20.70
2022-08-28T06:36:54.117Z,20.90
2022-08-28T06:39:22.963Z,21.10
2022-08-28T06:41:50.728Z,21.30
2022-08-28T06:44:20.181Z,21.40
2022-08-28T06:46:50.129Z,21.40
2022-08-28T06:49:17.769Z,21.50
2022-08-28T06:51:45.317Z,21.60
2022-08-28T06:54:12.868Z,21.70
2022-08-28T06:56:40.401Z,21.80
2022-08-28T06:59:08.051Z,21.80
2022-08-28T07:01:37.107Z,21.80
2022-08-28T07:04:10.626Z,21.90
2022-08-28T07:06:40.480Z,22.00
2022-08-28T07:09:11.392Z,22.00
2022-08-28T07:11:40.570Z,22.10
2022-08-28T07:14:08.262Z,22.20
2022-08-28T07:16:39.464Z,22.30
2022-08-28T07:19:10.030Z,22.40
2022-08-28T07:21:40.732Z,22.60
2022-08-28T07:24:10.541Z,22.70
2022-08-28T07:26:41.246Z,22.80
2022-08-28T07:29:09.852Z,22.90
2022-08-28T07:31:44.320Z,23.00
2022-08-28T07:34:14.700Z,23.10
2022-08-28T07:36:42.733Z,23.20
2022-08-28T07:39:12.415Z,23.00
2022-08-28T07:41:43.152Z,23.30
2022-08-28T07:44:32.667Z,23.40
2022-08-28T07:47:04.578Z,23.50
2022-08-28T07:49:36.237Z,23.60
2022-08-28T07:52:04.481Z,23.70
2022-08-28T07:54:32.064Z,23.80
2022-08-28T07:56:59.644Z,23.90
2022-08-28T07:59:29.566Z,23.90
2022-08-28T08:02:05.738Z,24.00
2022-08-28T08:04:34.119Z,24.10
2022-08-28T08:07:03.608Z,24.10
2022-08-28T08:09:31.229Z,24.10
2022-08-28T08:12:00.279Z,24.20
2022-08-28T08:14:28.166Z,24.10
2022-08-28T08:16:55.697Z,24.10
2022-08-28T08:19:23.103Z,24.20
2022-08-28T08:21:51.777Z,24.20
2022-08-28T08:24:26.382Z,24.20
2022-08-28T08:27:00.955Z,24.20
2022-08-28T08:29:36.310Z,24.20
2022-08-28T08:32:08.143Z,24.10
2022-08-28T08:34:42.384Z,24.40
2022-08-28T08:37:11.875Z,24.50
2022-08-28T08:39:41.712Z,24.60
2022-08-28T08:42:25.653Z,24.70
2022-08-28T08:44:55.369Z,24.60
2022-08-28T08:47:34.681Z,24.70
2022-08-28T08:50:06.895Z,24.80
2022-08-28T08:53:15.717Z,24.90
2022-08-28T08:55:48.203Z,25.10
2022-08-28T08:58:34.618Z,25.20
2022-08-28T09:01:32.662Z,25.30
2022-08-28T09:04:09.277Z,25.40
2022-08-28T09:06:55.589Z,25.60
2022-08-28T09:09:48.392Z,25.80
2022-08-28T09:12:24.916Z,26.00
2022-08-28T09:15:05.803Z,26.10
2022-08-28T09:17:45.305Z,26.10
2022-08-28T09:20:15.824Z,26.30
2022-08-28T09:22:46.256Z,26.20
2022-08-28T09:26:01.821Z,26.30
2022-08-28T09:28:34.343Z,26.40
2022-08-28T09:31:07.706Z,26.50
2022-08-28T09:33:45.191Z,26.60
2022-08-28T09:36:30.193Z,26.60
2022-08-28T09:39:19.878Z,26.60
2022-08-28T09:42:30.833Z,26.70
2022-08-28T09:45:20.475Z,26.70
2022-08-28T09:47:58.525Z,26.60
2022-08-28T09:50:32.121Z,26.50
2022-08-28T09:53:20.838Z,26.40
2022-08-28T09:56:08.513Z,26.50
2022-08-28T09:58:41.168Z,26.50
2022-08-28T10:01:29.799Z,26.30
2022-08-28T10:04:19.528Z,26.30
2022-08-28T10:07:11.848Z,26.30
2022-08-28T10:09:39.243Z,26.30
2022-08-28T10:12:35.839Z,26.40
2022-08-28T10:15:15.554Z,26.50
2022-08-28T10:18:02.045Z,26.60
2022-08-28T10:20:38.541Z,26.50
2022-08-28T10:23:27.876Z,26.40
2022-08-28T10:26:17.044Z,26.50
2022-08-28T10:28:57.030Z,26.60
2022-08-28T10:31:41.911Z,26.60
2022-08-28T10:34:20.445Z,26.60
2022-08-28T10:37:19.496Z,26.40
2022-08-28T10:39:54.079Z,26.30
2022-08-28T10:42:38.411Z,26.20
2022-08-28T10:45:12.153Z,26.40
2022-08-28T10:47:43.249Z,26.60
2022-08-28T10:50:17.583Z,26.60
2022-08-28T10:52:55.776Z,26.70
2022-08-28T10:55:32.633Z,26.70
2022-08-28T10:58:25.119Z,26.90
2022-08-28T11:01:06.803Z,27.10
2022-08-28T11:03:42.329Z,27.60
2022-08-28T11:06:27.406Z,27.90
2022-08-28T11:09:24.970Z,28.10
2022-08-28T11:12:01.581Z,28.20
2022-08-28T11:14:47.500Z,28.30
2022-08-28T11:17:22.165Z,28.20
2022-08-28T11:20:09.729Z,28.10
2022-08-28T11:22:57.311Z,28.00
2022-08-28T11:25:42.364Z,27.80
2022-08-28T11:28:27.859Z,27.80
2022-08-28T11:31:19.187Z,27.90
2022-08-28T11:33:59.195Z,28.10
2022-08-28T11:36:28.825Z,28.20
2022-08-28T11:38:56.894Z,28.20
2022-08-28T11:41:30.385Z,28.20
2022-08-28T11:44:10.947Z,27.90
2022-08-28T11:46:44.699Z,28.10
2022-08-28T11:49:28.600Z,28.20
2022-08-28T11:52:36.354Z,28.30
2022-08-28T11:55:12.500Z,28.60
2022-08-28T11:57:43.046Z,28.90
2022-08-28T12:00:31.963Z,29.30
2022-08-28T12:03:27.523Z,29.50
2022-08-28T12:05:57.616Z,29.70
2022-08-28T12:08:49.208Z,29.90
2022-08-28T12:11:42.268Z,29.90
2022-08-28T12:14:12.814Z,30.20
2022-08-28T12:17:15.135Z,30.60
2022-08-28T12:19:55.172Z,30.70
2022-08-28T12:22:27.023Z,30.40
2022-08-28T12:25:01.283Z,30.20
2022-08-28T12:27:29.873Z,30.00
2022-08-28T12:29:59.793Z,29.90
2022-08-28T12:32:53.548Z,29.50
2022-08-28T12:35:25.804Z,29.40
2022-08-28T12:37:54.000Z,29.80
2022-08-28T12:40:25.997Z,30.00
2022-08-28T12:43:01.955Z,29.90
2022-08-28T12:45:57.800Z,29.90
2022-08-28T12:48:34.102Z,29.70
2022-08-28T12:51:08.591Z,29.80
2022-08-28T12:53:43.601Z,29.70
2022-08-28T12:56:15.023Z,29.30
2022-08-28T12:58:43.663Z,29.30
2022-08-28T13:01:24.694Z,29.30
2022-08-28T13:03:59.160Z,29.30
2022-08-28T13:06:38.418Z,29.10
2022-08-28T13:09:15.214Z,28.70
2022-08-28T13:11:47.991Z,28.60
2022-08-28T13:14:35.342Z,28.60
2022-08-28T13:17:03.165Z,28.40
2022-08-28T13:19:32.953Z,28.20
2022-08-28T13:22:03.388Z,28.10
2022-08-28T13:24:41.404Z,28.10
2022-08-28T13:27:12.301Z,28.10
2022-08-28T13:30:04.312Z,28.10
2022-08-28T13:32:35.888Z,28.10
2022-08-28T13:35:09.473Z,27.90
2022-08-28T13:37:54.075Z,27.80
2022-08-28T13:40:56.489Z,27.80
2022-08-28T13:43:19.219Z,27.80
2022-08-28T13:45:49.025Z,27.90
2022-08-28T13:48:19.618Z,28.00
2022-08-28T13:50:53.081Z,28.00
2022-08-28T13:53:21.424Z,27.90
2022-08-28T13:55:50.838Z,27.70
2022-08-28T13:58:20.841Z,27.50
2022-08-28T14:00:50.728Z,28.00
2022-08-28T14:03:37.915Z,27.50
2022-08-28T14:06:14.497Z,27.50
2022-08-28T14:08:43.960Z,27.50
2022-08-28T14:11:13.325Z,27.50
2022-08-28T14:13:47.264Z,27.50
2022-08-28T14:16:27.646Z,27.40
2022-08-28T14:18:55.152Z,27.40
2022-08-28T14:21:24.816Z,27.30
2022-08-28T14:23:52.360Z,27.30
2022-08-28T14:26:23.262Z,27.40
2022-08-28T14:28:50.697Z,27.50
2022-08-28T14:31:18.543Z,27.60
2022-08-28T14:33:46.230Z,27.70
2022-08-28T14:36:21.158Z,27.70
2022-08-28T14:38:53.661Z,27.80
2022-08-28T14:41:22.493Z,27.80
2022-08-28T14:43:50.212Z,27.60
2022-08-28T14:46:19.951Z,27.60
2022-08-28T14:48:48.331Z,27.60
2022-08-28T14:51:17.417Z,27.50
2022-08-28T14:53:45.324Z,27.40
2022-08-28T14:56:14.265Z,27.50
2022-08-28T14:58:41.895Z,27.60
2022-08-28T15:01:09.991Z,27.70
2022-08-28T15:03:37.817Z,27.70
2022-08-28T15:06:10.655Z,27.70
2022-08-28T15:08:38.488Z,27.70
2022-08-28T15:11:14.240Z,27.70
2022-08-28T15:13:47.817Z,27.70
2022-08-28T15:16:21.115Z,27.60
2022-08-28T15:18:49.128Z,27.60
2022-08-28T15:21:19.460Z,27.50
2022-08-28T15:23:51.057Z,27.50
2022-08-28T15:26:20.218Z,27.50
2022-08-28T15:28:48.003Z,27.60
2022-08-28T15:31:16.733Z,27.40
2022-08-28T15:33:45.518Z,27.20
2022-08-28T15:36:18.948Z,27.10
2022-08-28T15:39:05.386Z,26.80
2022-08-28T15:41:33.027Z,26.10
2022-08-28T15:44:02.318Z,23.30
2022-08-28T15:46:33.907Z,21.10
2022-08-28T15:49:03.613Z,19.10
2022-08-28T15:51:42.139Z,18.80
2022-08-28T15:54:10.654Z,18.70
2022-08-28T15:56:38.453Z,18.40
2022-08-28T15:59:06.073Z,18.40
2022-08-28T16:01:33.821Z,18.50
2022-08-28T16:04:01.402Z,18.60
2022-08-28T16:06:29.463Z,18.50
2022-08-28T16:08:57.625Z,18.60
2022-08-28T16:11:26.013Z,18.80
2022-08-28T16:13:54.135Z,19.00
2022-08-28T16:16:21.725Z,19.20
2022-08-28T16:18:49.845Z,19.40
2022-08-28T16:21:17.926Z,19.50
2022-08-28T16:23:45.566Z,19.60
2022-08-28T16:26:15.922Z,19.50
2022-08-28T16:28:45.057Z,19.50
2022-08-28T16:31:19.761Z,19.60
2022-08-28T16:33:50.024Z,19.80
2022-08-28T16:36:18.778Z,20.00
2022-08-28T16:39:00.561Z,19.70
2022-08-28T16:41:32.819Z,20.30
2022-08-28T16:44:00.395Z,20.40
2022-08-28T16:46:28.742Z,20.40
2022-08-28T16:48:56.885Z,20.40
2022-08-28T16:51:27.173Z,20.40
2022-08-28T16:53:55.823Z,20.40
2022-08-28T16:56:26.957Z,20.40
2022-08-28T16:58:55.433Z,20.30
2022-08-28T17:01:24.244Z,20.20
2022-08-28T17:03:54.686Z,19.30
2022-08-28T17:06:29.303Z,20.20
2022-08-28T17:08:58.077Z,20.10
2022-08-28T17:11:29.243Z,20.10
2022-08-28T17:13:57.300Z,20.10
2022-08-28T17:16:26.259Z,20.30
2022-08-28T17:18:53.849Z,20.20
2022-08-28T17:21:41.305Z,20.00
2022-08-28T17:24:12.667Z,19.90
2022-08-28T17:26:42.242Z,19.90
2022-08-28T17:29:10.429Z,19.70
2022-08-28T17:31:38.773Z,19.70
2022-08-28T17:34:07.609Z,19.70
2022-08-28T17:36:38.087Z,19.70
2022-08-28T17:39:09.163Z,19.70
2022-08-28T17:41:37.502Z,19.60
2022-08-28T17:44:05.530Z,19.50
2022-08-28T17:46:37.685Z,19.60
2022-08-28T17:49:07.271Z,19.70
2022-08-28T17:51:43.407Z,19.80
2022-08-28T17:54:13.726Z,19.80
2022-08-28T17:56:41.917Z,19.70
2022-08-28T17:59:10.404Z,19.70
2022-08-28T18:01:38.776Z,19.60
2022-08-28T18:04:06.623Z,19.60
2022-08-28T18:06:34.703Z,19.60
2022-08-28T18:09:02.540Z,19.70
2022-08-28T18:11:30.259Z,19.60
2022-08-28T18:13:59.925Z,19.70
2022-08-28T18:16:31.445Z,19.70
2022-08-28T18:19:05.119Z,19.60
2022-08-28T18:21:33.229Z,19.60
2022-08-28T18:24:01.094Z,19.70
2022-08-28T18:26:29.105Z,19.70
2022-08-28T18:28:59.153Z,19.60
2022-08-28T18:31:26.923Z,19.30
2022-08-28T18:33:54.758Z,19.60
2022-08-28T18:36:23.481Z,19.60
2022-08-28T18:38:51.400Z,19.50
2022-08-28T18:41:20.705Z,19.50
2022-08-28T18:43:48.423Z,19.50
2022-08-28T18:46:16.009Z,19.50
2022-08-28T18:48:44.034Z,19.60
2022-08-28T18:51:12.573Z,19.60
2022-08-28T18:53:42.276Z,19.50
2022-08-28T18:56:12.238Z,19.50
2022-08-28T18:58:41.872Z,19.50
2022-08-28T19:01:10.117Z,19.40
2022-08-28T19:03:37.728Z,19.30
2022-08-28T19:06:06.581Z,19.30
2022-08-28T19:08:36.886Z,19.30
2022-08-28T19:11:10.778Z,19.20
2022-08-28T19:13:39.069Z,19.10
2022-08-28T19:16:07.821Z,19.10
2022-08-28T19:18:36.022Z,19.10
2022-08-28T19:21:16.807Z,19.10
2022-08-28T19:23:47.559Z,19.10
2022-08-28T19:26:27.350Z,19.10
2022-08-28T19:28:55.669Z,19.00
2022-08-28T19:31:24.699Z,19.10
2022-08-28T19:33:52.335Z,19.00
2022-08-28T19:36:20.729Z,19.00
2022-08-28T19:38:48.276Z,19.10
2022-08-28T19:41:15.820Z,19.10
2022-08-28T19:43:44.649Z,19.10
2022-08-28T19:46:20.148Z,19.00
2022-08-28T19:48:52.806Z,19.10
2022-08-28T19:51:22.792Z,18.50
2022-08-28T19:53:58.903Z,19.10
2022-08-28T19:56:28.248Z,18.90
2022-08-28T19:58:59.507Z,18.90
2022-08-28T20:01:32.989Z,18.90
2022-08-28T20:04:01.023Z,18.80
2022-08-28T20:06:31.400Z,18.80
2022-08-28T20:08:59.230Z,18.80
2022-08-28T20:11:30.144Z,18.70
2022-08-28T20:14:04.730Z,18.70
2022-08-28T20:16:39.248Z,18.70
2022-08-28T20:19:11.042Z,18.70
2022-08-28T20:21:43.218Z,18.70
2022-08-28T20:24:14.486Z,18.70
2022-08-28T20:26:42.529Z,18.70
2022-08-28T20:29:11.147Z,18.60
2022-08-28T20:31:41.969Z,18.60
2022-08-28T20:34:11.779Z,18.60
2022-08-28T20:36:39.640Z,18.60
2022-08-28T20:39:09.510Z,18.60
2022-08-28T20:41:39.183Z,18.50
2022-08-28T20:44:09.421Z,18.40
2022-08-28T20:46:41.269Z,18.30
2022-08-28T20:49:11.179Z,18.30
2022-08-28T20:52:01.346Z,18.20
2022-08-28T20:54:30.803Z,18.10
2022-08-28T20:57:08.959Z,18.10
2022-08-28T20:59:40.376Z,18.10
2022-08-28T21:02:11.373Z,18.00
2022-08-28T21:04:40.347Z,18.00
2022-08-28T21:07:08.067Z,17.90
2022-08-28T21:10:02.194Z,17.80
2022-08-28T21:12:24.748Z,17.80
2022-08-28T21:14:53.203Z,17.80
2022-08-28T21:17:28.771Z,17.70
2022-08-28T21:20:10.212Z,17.80
2022-08-28T21:22:38.535Z,17.70
2022-08-28T21:25:09.165Z,17.70
2022-08-28T21:27:37.796Z,17.70
2022-08-28T21:30:07.444Z,17.70
2022-08-28T21:32:35.547Z,17.70
2022-08-28T21:35:06.215Z,17.70
2022-08-28T21:37:34.148Z,17.70
2022-08-28T21:40:02.065Z,17.70
2022-08-28T21:42:29.905Z,17.70
2022-08-28T21:44:57.366Z,17.70
2022-08-28T21:47:25.745Z,17.70
2022-08-28T21:49:55.448Z,17.60
2022-08-28T21:52:29.105Z,17.60
2022-08-28T21:55:01.969Z,17.70
2022-08-28T21:57:30.644Z,17.60
2022-08-28T21:59:58.843Z,17.60
2022-08-28T22:02:27.171Z,17.60
2022-08-28T22:04:55.162Z,17.50
2022-08-28T22:07:22.934Z,17.40
2022-08-28T22:09:51.090Z,17.30
2022-08-28T22:12:19.561Z,17.40
2022-08-28T22:14:46.989Z,17.30
2022-08-28T22:17:15.656Z,17.40
2022-08-28T22:19:46.399Z,17.30
2022-08-28T22:22:33.304Z,17.40
2022-08-28T22:25:01.437Z,17.40
2022-08-28T22:27:29.132Z,17.30
2022-08-28T22:29:56.741Z,17.30
2022-08-28T22:32:27.001Z,17.30
2022-08-28T22:34:55.853Z,17.30
2022-08-28T22:37:23.586Z,17.30
2022-08-28T22:39:51.128Z,17.30
2022-08-28T22:42:19.571Z,17.30
2022-08-28T22:44:47.207Z,17.40
2022-08-28T22:47:14.880Z,17.40
2022-08-28T22:49:42.814Z,17.40
2022-08-28T22:52:11.170Z,17.40
2022-08-28T22:54:39.159Z,17.40
2022-08-28T22:57:07.173Z,17.40
2022-08-28T22:59:35.727Z,17.40
2022-08-28T23:02:04.161Z,17.50
2022-08-28T23:04:31.691Z,17.50
2022-08-28T23:06:59.264Z,16.90
2022-08-28T23:09:28.060Z,17.50
2022-08-28T23:11:55.644Z,17.40
2022-08-28T23:14:28.035Z,17.40
2022-08-28T23:16:56.099Z,17.50
2022-08-28T23:19:23.989Z,17.40
2022-08-28T23:21:51.863Z,17.40
2022-08-28T23:24:19.781Z,17.00
2022-08-28T23:26:47.723Z,17.30
2022-08-28T23:29:15.844Z,17.30
2022-08-28T23:31:43.539Z,17.30
2022-08-28T23:34:11.237Z,17.30
2022-08-28T23:36:43.355Z,17.30
2022-08-28T23:39:11.082Z,17.30
2022-08-28T23:41:38.907Z,17.40
2022-08-28T23:44:09.195Z,17.50
2022-08-28T23:46:41.526Z,17.50
2022-08-28T23:49:10.266Z,17.50
2022-08-28T23:51:38.478Z,17.50
2022-08-28T23:54:07.521Z,17.50
2022-08-28T23:56:35.740Z,17.50
2022-08-28T23:59:04.902Z,17.50
